Station info - map view · info · telemetry · weather · raw · status · beacons · messages · bulletins · browse · moving · my account
Callsign, ship name or locator: Clear       
It is possible to search using wildcards (*?) after a prefix. Example: OH*
APRS station F1CIJ-9 - show graphs
Map loading...
Comment: 73 QRO de Jean Pierre (JP05).
Mic-E message: En route
Location: 44°51.03' N 1°50.77' E - locator JN04WU14MC - show map - static map
2.4 miles West bearing 259° from Saint-Céré, Département du Lot, Midi-Pyrénées, France [?]
4.4 miles South bearing 176° from Bretenoux, Département du Lot, Midi-Pyrénées, France
73.5 miles Southeast bearing 157° from Limoges, Département de la Haute-Vienne, Limousin, France
88.0 miles Southwest bearing 224° from Clermont-Ferrand, Département du Puy-de-Dôme, Auvergne, France
Last position: 2017-06-25 04:24:56 EDT (3d 21h9m ago)
2017-06-25 10:24:56 CEST local time at Saint-Céré, France [?]
Altitude: 886 ft
Course: 14°
Speed: 20 MPH
Device: Yaesu: FTM-400DR (rig)
Last path: F1CIJ-9>TT5QP3 via F0DZO-3*,WIDE2-1,qAR,F1ZIA (good)
Positions stored: 2973
Packet rate: 100 seconds between packets on average during 3693 seconds.
Other SSIDs: F1CIJ
Stations near current position of F1CIJ-9 - show more
callsign distance last heard - EDT      callsign distance last heard - EDT
F1EZC17.9 miles 18°2017-06-27 09:00:10 F1EZC-1317.9 miles 18°2017-06-27 06:00:14
EL-F4EYL18.6 miles 155°2017-06-29 01:31:23 DW481122.4 miles 117°2017-06-29 01:31:53
FRB024-924.4 miles 292°2017-06-22 02:29:04 F1GBJ-425.7 miles 322°2017-06-27 16:22:14
F6KLO-426.6 miles 319°2017-06-29 01:16:09 F1GBJ-927.1 miles 320°2017-06-11 12:06:29
F5UU-934.5 miles 304°2017-06-17 12:01:58
Stations which heard F1CIJ-9 directly on radio –
callsign pkts first heard - EDT last heard longest (tx => rx) longest at - EDT
F5ZQB-3 27 2017-06-22 08:28:27 2017-06-25 03:44:02 JN04SP > JN02UR 132.6 miles 177° 2017-06-25 03:44:02
EA3CWQ-15 3 2017-06-22 08:03:00 2017-06-22 08:34:23 JN23BQ > JN11OW 129.5 miles 201° 2017-06-22 08:03:00
F5ZVO 2 2017-06-22 11:48:04 2017-06-22 12:16:01 JN04RK > IN92PX 149.5 miles 229° 2017-06-22 12:16:01
F1ZWR-3 9 2017-06-22 06:30:05 2017-06-22 08:17:11 JN13WO > JN24DD 41.8 miles 26° 2017-06-22 08:17:11
F1ZXR-3 19 2017-06-22 09:00:39 2017-06-22 11:06:40 JN13NG > JN02TW 82.8 miles 254° 2017-06-22 09:00:39
F1ZVN-3 1 2017-06-22 09:59:20 2017-06-22 09:59:20 JN03XG > JN02VN 49.2 miles 190° 2017-06-22 09:59:20
F5KKJ-3 3 2017-06-22 10:25:54 2017-06-22 10:45:43 JN03SN > JN03QP 8.4 miles 321° 2017-06-22 10:25:54
F5ZZQ-3 9 2017-06-22 08:24:15 2017-06-22 09:24:55 JN13VN > JN12CS 96.6 miles 238° 2017-06-22 08:24:15
F1ZCJ-3 24 2017-06-22 09:03:58 2017-06-22 10:04:46 JN13NF > JN13FI 35.5 miles 285° 2017-06-22 09:03:58
F5ZWS-3 3 2017-06-22 10:02:27 2017-06-25 03:52:38 JN03WH > JN14KD 75.6 miles 39° 2017-06-22 10:02:27
F1JRN 6 2017-06-25 03:35:49 2017-06-25 03:48:40 JN04SP > JN05HA 53.9 miles 298° 2017-06-25 03:48:40
F5ZHU-3 9 2017-06-25 03:30:49 2017-06-25 04:06:35 JN04US > JN04OV 27.1 miles 289° 2017-06-25 04:06:35
F5RGH-10 4 2017-06-25 03:23:23 2017-06-25 03:50:08 JN04RM > JN14II 63.7 miles 100° 2017-06-25 03:23:23
F1OFG-3 1 2017-06-25 03:29:03 2017-06-25 03:29:03 JN04RN > JN03EO 83.9 miles 221° 2017-06-25 03:29:03
F5ZWN-3 2 2017-06-22 08:35:09 2017-06-22 08:50:54 JN13TK > JN12BL 101.3 miles 228° 2017-06-22 08:35:09
F1ZBF-3 2 2017-06-22 05:01:42 2017-06-22 05:06:15 JN23VS > JN24VC 24.0 miles 360° 2017-06-22 05:06:15
F1ZHU-3 1 2017-06-22 11:12:39 2017-06-22 11:12:39 JN04QB > JN03KV 29.6 miles 251° 2017-06-22 11:12:39
F5ZZW-3 5 2017-06-25 03:37:31 2017-06-25 04:22:42 JN04SO > JN05RM 63.7 miles 358° 2017-06-25 03:37:31
F1ZIA 1 2017-06-25 03:46:56 2017-06-25 03:46:56 JN04SP > JN05SD 34.8 miles 357° 2017-06-25 03:46:56
F0DZO-3 3 2017-06-25 03:36:59 2017-06-25 04:24:56 JN04SO > JN05UI 53.8 miles 11° 2017-06-25 03:36:59
F1ZJM-3 3 2017-06-22 08:46:07 2017-06-22 09:15:03 JN13QJ > JN12LL 66.0 miles 201° 2017-06-22 08:46:07
F4HTU-3 21 2017-06-22 06:33:10 2017-06-22 08:01:08 JN23GQ > JN23ET 13.9 miles 318° 2017-06-22 06:33:10
F4AUY-3 10 2017-06-22 09:32:08 2017-06-22 09:53:36 JN13BF > JN13EG 13.4 miles 80° 2017-06-22 09:53:36

Only position packets which were originated by the station are shown here. The range statistics show some extra long hops, because some digipeaters do not correctly add themselves to the digipeater path. Please check the raw packets.
About this site
This page shows real-time information collected from the Automatic Position Reporting System Internet network (APRS-IS). APRS is used by amateur (ham) radio operators to transmit real-time position information, weather data, telemetry and messages over the radio. A vehicle equipped with a GPS receiver, a VHF transmitter or HF transceiver and a small computer device called a tracker transmits it's location, speed and course in a small data packet, which is then received by a nearby iGate receiving site which forwards the packet on the Internet. Systems connected to the Internet can send information on the APRS-IS without a radio transmitter, or collect and display information transmitted anywhere in the world.
FAQ · Blog · Discussion group · Linking to aprs.fi · AIS sites · Service status · Database statistics · Advertising on aprs.fi · Technical details · API · Change log · Planned changes · Credits and thanks · Terms Of Service · iPhone/iPad APRS